Time;durP1;ratioP1;P1;durP2;ratioP2;P2;SDS_P1;SDS_P2;PMS_P1;PMS_P2;Temp;Humidity;BMP_temperature;BMP_pressure;BME280_temperature;BME280_humidity;BME280_pressure;Samples;Min_cycle;Max_cycle;Signal;HPM_P1;HPM_P2
2022/09/10 00:01:19;;;;;;;1.80;1.48;;;;;;;;;;6260298;28;20551;-79
2022/09/10 00:04:20;;;;;;;2.85;1.50;;;;;;;;;;6278034;28;20048;-80
2022/09/10 00:07:22;;;;;;;4.15;1.30;;;;;;;;;;6286158;28;20048;-80
2022/09/10 00:10:25;;;;;;;3.35;1.50;;;;;;;;;;6267744;28;20044;-80
2022/09/10 00:13:27;;;;;;;4.43;1.40;;;;;;;;;;6285583;28;20044;-81
2022/09/10 00:16:30;;;;;;;3.50;1.40;;;;;;;;;;6286459;28;20044;-79
2022/09/10 00:19:31;;;;;;;3.60;1.58;;;;;;;;;;6267114;28;20049;-80
2022/09/10 00:22:33;;;;;;;6.03;1.73;;;;;;;;;;6261320;28;20075;-79
2022/09/10 00:25:35;;;;;;;2.22;1.30;;;;;;;;;;6278044;28;20041;-80
2022/09/10 00:28:37;;;;;;;2.33;1.23;;;;;;;;;;6286238;28;20051;-80
2022/09/10 00:31:39;;;;;;;3.07;1.47;;;;;;;;;;6283117;28;20040;-81
2022/09/10 00:34:41;;;;;;;2.38;1.40;;;;;;;;;;6279884;28;20451;-79
2022/09/10 00:37:42;;;;;;;4.30;1.60;;;;;;;;;;6282655;28;20096;-81
2022/09/10 00:40:45;;;;;;;3.22;1.35;;;;;;;;;;6280839;28;20063;-80
2022/09/10 00:43:58;;;;;;;2.47;1.73;;;;;;;;;;6286354;28;20040;-80
2022/09/10 00:47:00;;;;;;;4.60;1.50;;;;;;;;;;6281771;28;20601;-79
2022/09/10 00:50:14;;;;;;;2.65;1.30;;;;;;;;;;6280784;28;20499;-80
2022/09/10 00:53:21;;;;;;;4.07;1.60;;;;;;;;;;6285404;28;20049;-81
2022/09/10 00:56:23;;;;;;;2.20;1.67;;;;;;;;;;6282148;28;20048;-80
2022/09/10 00:59:25;;;;;;;3.45;1.77;;;;;;;;;;6287601;28;20044;-80
2022/09/10 01:02:27;;;;;;;3.42;1.42;;;;;;;;;;6282407;28;20087;-79
2022/09/10 01:05:29;;;;;;;2.85;1.45;;;;;;;;;;6286405;28;20044;-79
2022/09/10 01:08:30;;;;;;;5.43;1.65;;;;;;;;;;6284887;28;20067;-79
2022/09/10 01:11:54;;;;;;;3.80;1.77;;;;;;;;;;6281710;28;20059;-80
2022/09/10 01:15:26;;;;;;;2.83;1.70;;;;;;;;;;6281851;28;20043;-79
2022/09/10 01:18:50;;;;;;;2.60;1.70;;;;;;;;;;6280924;28;20041;-81
2022/09/10 01:22:16;;;;;;;2.88;1.58;;;;;;;;;;6300539;28;20051;-80
2022/09/10 01:25:27;;;;;;;2.42;1.65;;;;;;;;;;6266820;28;20131;-80
2022/09/10 01:28:44;;;;;;;3.53;1.90;;;;;;;;;;6256272;28;20040;-80
2022/09/10 01:32:07;;;;;;;2.58;1.73;;;;;;;;;;6254299;28;20408;-81
2022/09/10 01:35:17;;;;;;;3.97;1.70;;;;;;;;;;6242900;28;20045;-80
2022/09/10 01:38:26;;;;;;;3.60;1.85;;;;;;;;;;6266962;28;20206;-80
2022/09/10 01:41:29;;;;;;;6.90;2.25;;;;;;;;;;6269863;28;20045;-79
2022/09/10 01:44:48;;;;;;;2.70;2.25;;;;;;;;;;6252730;28;20534;-80
2022/09/10 01:48:41;;;;;;;7.68;2.47;;;;;;;;;;6244797;28;20041;-80
2022/09/10 01:52:04;;;;;;;4.85;2.40;;;;;;;;;;6238633;28;20043;-80
2022/09/10 01:55:10;;;;;;;3.13;2.30;;;;;;;;;;6257817;28;20041;-81
2022/09/10 01:58:26;;;;;;;4.10;2.38;;;;;;;;;;6266784;28;20048;-81
2022/09/10 02:01:53;;;;;;;2.72;2.00;;;;;;;;;;6273917;28;20048;-81
2022/09/10 02:04:55;;;;;;;3.17;1.92;;;;;;;;;;6275939;28;20073;-81
2022/09/10 02:08:02;;;;;;;6.10;1.90;;;;;;;;;;6277697;28;20037;-82
2022/09/10 02:11:08;;;;;;;7.95;1.90;;;;;;;;;;6283500;28;20060;-82
2022/09/10 02:14:14;;;;;;;5.18;2.08;;;;;;;;;;6273697;28;20048;-81
2022/09/10 02:17:37;;;;;;;6.00;2.20;;;;;;;;;;6275942;28;20387;-81
2022/09/10 02:20:40;;;;;;;4.20;2.00;;;;;;;;;;6259224;28;20040;-81
2022/09/10 02:23:45;;;;;;;3.75;1.90;;;;;;;;;;6261865;28;20059;-81
2022/09/10 02:26:48;;;;;;;3.13;2.17;;;;;;;;;;6274168;28;20047;-81
2022/09/10 02:29:49;;;;;;;6.38;2.10;;;;;;;;;;6279606;28;20124;-81
2022/09/10 02:32:51;;;;;;;3.95;2.22;;;;;;;;;;6276092;28;20112;-81
2022/09/10 02:35:54;;;;;;;5.03;2.38;;;;;;;;;;6279717;28;20056;-80
2022/09/10 02:38:57;;;;;;;4.72;1.90;;;;;;;;;;6269192;28;20127;-81
2022/09/10 02:42:00;;;;;;;3.85;1.90;;;;;;;;;;6277400;28;20058;-81
2022/09/10 02:45:04;;;;;;;4.85;2.53;;;;;;;;;;6283702;28;20043;-81
2022/09/10 02:48:05;;;;;;;4.38;2.00;;;;;;;;;;6277292;28;20052;-80
2022/09/10 02:51:07;;;;;;;5.10;2.30;;;;;;;;;;6284099;28;20039;-81
2022/09/10 02:54:10;;;;;;;;;;;;;;;;;;6284795;28;20063;-81
2022/09/10 02:57:12;;;;;;;4.43;1.83;;;;;;;;;;6283704;28;20061;-81
2022/09/10 03:00:14;;;;;;;2.65;1.70;;;;;;;;;;6282201;28;20048;-81
2022/09/10 03:03:16;;;;;;;3.95;1.85;;;;;;;;;;6275494;28;20059;-81
2022/09/10 03:06:18;;;;;;;4.43;1.77;;;;;;;;;;6263830;28;20055;-81
2022/09/10 03:09:21;;;;;;;3.85;2.05;;;;;;;;;;6283887;28;20044;-81
2022/09/10 03:12:23;;;;;;;5.68;1.73;;;;;;;;;;6271246;28;20105;-81
2022/09/10 03:15:25;;;;;;;2.25;1.85;;;;;;;;;;6279716;28;20076;-80
2022/09/10 03:18:26;;;;;;;3.67;2.03;;;;;;;;;;6279585;28;20746;-81
2022/09/10 03:21:28;;;;;;;4.95;1.80;;;;;;;;;;6282353;28;20066;-81
2022/09/10 03:24:31;;;;;;;5.40;1.73;;;;;;;;;;6279174;28;20135;-81
2022/09/10 03:27:33;;;;;;;3.58;1.90;;;;;;;;;;6274765;28;20132;-81
2022/09/10 03:30:36;;;;;;;2.03;1.63;;;;;;;;;;6284621;28;20110;-81
2022/09/10 03:33:42;;;;;;;4.85;1.90;;;;;;;;;;6278392;28;20395;-81
2022/09/10 03:36:46;;;;;;;6.88;2.72;;;;;;;;;;6266149;28;20045;-81
2022/09/10 03:39:48;;;;;;;5.82;1.80;;;;;;;;;;6281339;28;20049;-80
2022/09/10 03:42:50;;;;;;;4.53;1.90;;;;;;;;;;6288317;28;20040;-79
2022/09/10 03:45:52;;;;;;;4.25;2.00;;;;;;;;;;6287256;28;20044;-80
2022/09/10 03:48:53;;;;;;;2.28;1.85;;;;;;;;;;6286283;28;20124;-82
2022/09/10 03:51:58;;;;;;;4.10;2.00;;;;;;;;;;6285344;28;20110;-81
2022/09/10 03:55:00;;;;;;;4.37;2.30;;;;;;;;;;6286657;28;20044;-80
2022/09/10 03:58:02;;;;;;;5.47;2.33;;;;;;;;;;6273280;28;20446;-80
2022/09/10 04:01:04;;;;;;;5.45;2.30;;;;;;;;;;6267300;28;20119;-79
2022/09/10 04:04:09;;;;;;;4.15;2.60;;;;;;;;;;6267084;28;20048;-78
2022/09/10 04:07:11;;;;;;;4.75;2.72;;;;;;;;;;6281870;28;20069;-82
2022/09/10 04:10:13;;;;;;;5.72;2.50;;;;;;;;;;6294883;28;20131;-78
2022/09/10 04:13:15;;;;;;;9.40;2.70;;;;;;;;;;6290382;28;20049;-79
2022/09/10 04:16:17;;;;;;;3.28;2.42;;;;;;;;;;6294363;28;20041;-81
2022/09/10 04:19:19;;;;;;;5.95;2.90;;;;;;;;;;6278600;28;20045;-78
2022/09/10 04:22:23;;;;;;;4.40;2.50;;;;;;;;;;6281467;28;20045;-79
2022/09/10 04:25:25;;;;;;;6.37;2.80;;;;;;;;;;6283407;28;20105;-78
2022/09/10 04:28:27;;;;;;;7.38;3.42;;;;;;;;;;6276192;28;20977;-78
2022/09/10 04:31:29;;;;;;;5.93;2.95;;;;;;;;;;6284469;28;20063;-79
2022/09/10 04:34:36;;;;;;;5.50;3.10;;;;;;;;;;6279267;28;20124;-79
2022/09/10 04:37:40;;;;;;;5.55;2.85;;;;;;;;;;6285807;28;20344;-77
2022/09/10 04:40:46;;;;;;;5.82;2.83;;;;;;;;;;6284754;28;20040;-78
2022/09/10 04:43:48;;;;;;;5.55;2.90;;;;;;;;;;6288141;28;20064;-77
2022/09/10 04:46:49;;;;;;;5.03;2.75;;;;;;;;;;6285171;28;20052;-77
2022/09/10 04:49:51;;;;;;;6.70;2.85;;;;;;;;;;6265385;28;20101;-76
2022/09/10 04:52:54;;;;;;;5.05;3.13;;;;;;;;;;6279859;28;20044;-77
2022/09/10 04:55:56;;;;;;;7.43;3.58;;;;;;;;;;6278858;28;20060;-79
2022/09/10 04:58:58;;;;;;;5.38;3.10;;;;;;;;;;6287530;28;20104;-80
2022/09/10 05:02:02;;;;;;;6.15;3.70;;;;;;;;;;6283783;28;20041;-80
2022/09/10 05:05:04;;;;;;;8.25;3.80;;;;;;;;;;6279762;28;20051;-78
2022/09/10 05:08:07;;;;;;;7.27;3.40;;;;;;;;;;6277473;28;20048;-78
2022/09/10 05:11:09;;;;;;;7.18;4.15;;;;;;;;;;6287366;28;20045;-78
2022/09/10 05:14:10;;;;;;;4.15;3.40;;;;;;;;;;6273173;28;20044;-79
2022/09/10 05:17:12;;;;;;;3.95;3.10;;;;;;;;;;6305204;28;20060;-78
2022/09/10 05:20:14;;;;;;;3.67;3.20;;;;;;;;;;6296383;28;20052;-76
2022/09/10 05:23:23;;;;;;;5.15;3.30;;;;;;;;;;6296894;28;20075;-77
2022/09/10 05:26:26;;;;;;;6.18;2.90;;;;;;;;;;6288495;28;20036;-78
2022/09/10 05:29:29;;;;;;;4.93;2.90;;;;;;;;;;6269349;28;20059;-78
2022/09/10 05:32:32;;;;;;;4.93;3.58;;;;;;;;;;6270884;28;20131;-78
2022/09/10 05:35:34;;;;;;;4.77;2.90;;;;;;;;;;6287812;28;21313;-78
2022/09/10 05:38:37;;;;;;;5.23;3.07;;;;;;;;;;6290822;28;20040;-78
2022/09/10 05:41:42;;;;;;;6.28;3.33;;;;;;;;;;6274009;28;20690;-78
2022/09/10 05:44:44;;;;;;;6.90;3.30;;;;;;;;;;6296542;28;20051;-77
2022/09/10 05:47:46;;;;;;;4.57;3.40;;;;;;;;;;6290193;28;20333;-78
2022/09/10 05:50:52;;;;;;;8.73;4.85;;;;;;;;;;6284046;28;20134;-77
2022/09/10 05:53:54;;;;;;;5.82;3.83;;;;;;;;;;6282484;28;20078;-80
2022/09/10 05:56:57;;;;;;;4.90;3.30;;;;;;;;;;6280610;28;20040;-78
2022/09/10 06:00:00;;;;;;;5.70;3.17;;;;;;;;;;6268648;28;20051;-78
2022/09/10 06:03:04;;;;;;;6.13;3.17;;;;;;;;;;6270853;28;20570;-76
2022/09/10 06:06:12;;;;;;;4.72;2.97;;;;;;;;;;6281319;28;20064;-79
2022/09/10 06:09:19;;;;;;;4.75;2.30;;;;;;;;;;6278853;28;20053;-76
2022/09/10 06:12:33;;;;;;;5.18;3.00;;;;;;;;;;6274300;28;20511;-78
2022/09/10 06:15:36;;;;;;;4.40;3.40;;;;;;;;;;6269732;28;20163;-77
2022/09/10 06:18:39;;;;;;;6.13;2.83;;;;;;;;;;6279149;28;20049;-77
2022/09/10 06:21:44;;;;;;;3.80;2.63;;;;;;;;;;6243077;28;20083;-79
2022/09/10 06:24:47;;;;;;;3.53;3.10;;;;;;;;;;6255160;28;20037;-76
2022/09/10 06:27:52;;;;;;;4.63;3.00;;;;;;;;;;6283318;28;20045;-79
2022/09/10 06:30:54;;;;;;;4.55;2.25;;;;;;;;;;6282576;28;20048;-77
2022/09/10 06:33:56;;;;;;;3.60;2.20;;;;;;;;;;6290447;28;20054;-77
2022/09/10 06:37:03;;;;;;;3.60;2.40;;;;;;;;;;6288195;28;20048;-79
2022/09/10 06:40:05;;;;;;;4.07;2.20;;;;;;;;;;6276668;28;20041;-77
2022/09/10 06:43:08;;;;;;;4.10;2.33;;;;;;;;;;6269958;28;20037;-78
2022/09/10 06:46:29;;;;;;;2.83;1.92;;;;;;;;;;6258065;28;20179;-78
2022/09/10 06:49:54;;;;;;;4.03;2.38;;;;;;;;;;6258227;28;20201;-80
2022/09/10 06:52:59;;;;;;;3.78;2.20;;;;;;;;;;6277506;28;20052;-77
2022/09/10 06:56:04;;;;;;;2.92;2.17;;;;;;;;;;6272994;28;20147;-78
2022/09/10 06:59:08;;;;;;;2.83;1.80;;;;;;;;;;6274096;28;20052;-77
2022/09/10 07:02:19;;;;;;;3.92;2.17;;;;;;;;;;6271191;28;20060;-77
2022/09/10 07:05:24;;;;;;;4.07;2.03;;;;;;;;;;6264531;28;20130;-77
2022/09/10 07:08:27;;;;;;;;;;;;;;;;;;6231622;28;20067;-76
2022/09/10 07:11:31;;;;;;;3.00;1.92;;;;;;;;;;6270012;28;20103;-77
2022/09/10 07:14:35;;;;;;;3.63;2.25;;;;;;;;;;6285160;28;20048;-77
2022/09/10 07:17:40;;;;;;;5.28;2.50;;;;;;;;;;6292953;28;20067;-77
2022/09/10 07:20:45;;;;;;;2.22;1.85;;;;;;;;;;6285756;28;20048;-76
2022/09/10 07:23:54;;;;;;;2.80;2.03;;;;;;;;;;6288437;28;20494;-77
2022/09/10 07:26:57;;;;;;;2.92;1.73;;;;;;;;;;6279477;28;20045;-77
2022/09/10 07:29:58;;;;;;;2.97;1.75;;;;;;;;;;6284616;28;20032;-77
2022/09/10 07:33:01;;;;;;;2.67;1.63;;;;;;;;;;6276737;28;20392;-78
2022/09/10 07:36:05;;;;;;;2.42;1.65;;;;;;;;;;6271813;28;20041;-77
2022/09/10 07:39:09;;;;;;;3.13;1.70;;;;;;;;;;6266437;28;20049;-78
2022/09/10 07:42:14;;;;;;;3.03;1.40;;;;;;;;;;6267438;28;20525;-78
2022/09/10 07:45:15;;;;;;;1.50;1.05;;;;;;;;;;6283171;28;20037;-79
2022/09/10 07:48:18;;;;;;;2.30;1.30;;;;;;;;;;6266202;28;20061;-77
2022/09/10 07:51:20;;;;;;;2.05;1.20;;;;;;;;;;6279563;28;20088;-78
2022/09/10 07:54:23;;;;;;;2.28;1.35;;;;;;;;;;6274482;28;20059;-77
2022/09/10 07:57:30;;;;;;;2.45;1.25;;;;;;;;;;6271690;28;20048;-78
2022/09/10 08:00:36;;;;;;;1.67;1.00;;;;;;;;;;6264147;28;20041;-77
2022/09/10 08:03:41;;;;;;;1.83;1.10;;;;;;;;;;6257085;28;20095;-78
2022/09/10 08:06:46;;;;;;;2.15;1.08;;;;;;;;;;6263165;28;20036;-79
2022/09/10 08:09:48;;;;;;;1.70;0.90;;;;;;;;;;6249573;28;20167;-77
2022/09/10 08:12:52;;;;;;;2.67;0.98;;;;;;;;;;6272190;28;20064;-77
2022/09/10 08:15:56;;;;;;;2.15;1.02;;;;;;;;;;6272505;28;20033;-77
2022/09/10 08:18:59;;;;;;;1.92;1.38;;;;;;;;;;6268136;28;20037;-79
2022/09/10 08:22:04;;;;;;;3.85;1.30;;;;;;;;;;6275992;28;20048;-80
2022/09/10 08:25:15;;;;;;;2.60;1.20;;;;;;;;;;6278478;28;20044;-78
2022/09/10 08:28:18;;;;;;;1.02;1.00;;;;;;;;;;6267870;28;20060;-78
2022/09/10 08:31:26;;;;;;;2.53;1.05;;;;;;;;;;6277517;28;20079;-77
2022/09/10 08:34:35;;;;;;;1.88;1.20;;;;;;;;;;6266151;28;20123;-78
2022/09/10 08:37:40;;;;;;;4.97;1.25;;;;;;;;;;6277452;28;20041;-78
2022/09/10 08:40:43;;;;;;;2.90;1.10;;;;;;;;;;6273813;28;20135;-79
2022/09/10 08:44:07;;;;;;;2.20;1.13;;;;;;;;;;6280773;28;20447;-79
2022/09/10 08:47:32;;;;;;;1.98;1.10;;;;;;;;;;6276238;28;20526;-81
2022/09/10 08:51:15;;;;;;;1.88;1.20;;;;;;;;;;6248046;28;20049;-80
2022/09/10 08:54:24;;;;;;;1.65;1.08;;;;;;;;;;6270091;28;20052;-79
2022/09/10 08:57:35;;;;;;;1.10;1.00;;;;;;;;;;6278079;28;20055;-79
2022/09/10 09:00:39;;;;;;;1.17;0.80;;;;;;;;;;6254125;28;20041;-80
2022/09/10 09:03:46;;;;;;;1.75;0.80;;;;;;;;;;6278518;28;20036;-80
2022/09/10 09:06:51;;;;;;;1.70;0.80;;;;;;;;;;6270830;28;21062;-78
2022/09/10 09:09:54;;;;;;;1.15;0.70;;;;;;;;;;6275501;28;20075;-77
2022/09/10 09:13:14;;;;;;;1.25;0.60;;;;;;;;;;6265341;28;20040;-79
2022/09/10 09:16:50;;;;;;;0.63;0.60;;;;;;;;;;6273902;28;20503;-79
2022/09/10 09:20:22;;;;;;;1.35;0.60;;;;;;;;;;6277249;28;20037;-78
2022/09/10 09:23:40;;;;;;;0.70;0.65;;;;;;;;;;6251205;28;20582;-77
2022/09/10 09:27:11;;;;;;;1.63;0.80;;;;;;;;;;6255912;28;20068;-77
2022/09/10 09:30:22;;;;;;;2.38;0.80;;;;;;;;;;6271236;28;20037;-78
2022/09/10 09:33:28;;;;;;;1.63;1.20;;;;;;;;;;6292517;28;20040;-77
2022/09/10 09:36:45;;;;;;;1.58;0.98;;;;;;;;;;6263286;28;20156;-78
2022/09/10 09:40:11;;;;;;;2.55;1.40;;;;;;;;;;6262041;28;20048;-78
2022/09/10 09:43:36;;;;;;;1.38;1.10;;;;;;;;;;6265831;28;20049;-78
2022/09/10 09:46:39;;;;;;;2.22;1.08;;;;;;;;;;6247618;28;20049;-78
2022/09/10 09:49:41;;;;;;;5.03;1.10;;;;;;;;;;6244154;28;20221;-78
2022/09/10 09:52:44;;;;;;;1.88;0.80;;;;;;;;;;6266194;28;20444;-79
2022/09/10 09:55:47;;;;;;;;;;;;;;;;;;6256948;28;20045;-79
2022/09/10 09:58:50;;;;;;;1.05;0.60;;;;;;;;;;6246285;28;19921;-79
2022/09/10 10:01:56;;;;;;;1.27;0.88;;;;;;;;;;6249915;28;20080;-78
2022/09/10 10:05:23;;;;;;;2.08;1.02;;;;;;;;;;6271970;28;20041;-78
2022/09/10 10:08:36;;;;;;;1.05;0.80;;;;;;;;;;6277718;28;20048;-78
2022/09/10 10:11:50;;;;;;;0.60;0.60;;;;;;;;;;6273692;28;20055;-79
2022/09/10 10:14:52;;;;;;;0.93;0.50;;;;;;;;;;6256403;28;20041;-78
2022/09/10 10:17:54;;;;;;;1.15;0.80;;;;;;;;;;6280231;28;20070;-78
2022/09/10 10:21:17;;;;;;;0.90;0.70;;;;;;;;;;6280211;28;20518;-79
2022/09/10 10:24:28;;;;;;;;;;;;;;;;;;6284503;28;20124;-78
2022/09/10 10:27:41;;;;;;;0.73;0.73;;;;;;;;;;6270743;28;20566;-79
2022/09/10 10:30:43;;;;;;;1.55;0.70;;;;;;;;;;6273441;28;20049;-78
2022/09/10 10:34:15;;;;;;;1.67;0.90;;;;;;;;;;6269070;28;20048;-79
2022/09/10 10:37:25;;;;;;;1.13;0.70;;;;;;;;;;6272306;28;20190;-77
2022/09/10 10:40:59;;;;;;;0.88;0.70;;;;;;;;;;6267614;28;20121;-79
2022/09/10 10:44:23;;;;;;;2.83;0.98;;;;;;;;;;6270124;28;20096;-79
2022/09/10 10:47:52;;;;;;;1.33;0.82;;;;;;;;;;6267658;28;20047;-79
2022/09/10 10:51:16;;;;;;;2.70;1.00;;;;;;;;;;6279075;28;20582;-79
2022/09/10 10:54:17;;;;;;;;;;;;;;;;;;6269192;28;20136;-79
2022/09/10 10:57:38;;;;;;;2.40;1.20;;;;;;;;;;6275353;28;20374;-79
2022/09/10 11:00:45;;;;;;;1.25;1.15;;;;;;;;;;6257253;28;20124;-79
2022/09/10 11:04:02;;;;;;;2.20;1.20;;;;;;;;;;6284727;28;20115;-78
2022/09/10 11:07:10;;;;;;;2.03;1.30;;;;;;;;;;6281248;28;20045;-78
2022/09/10 11:10:19;;;;;;;2.78;1.10;;;;;;;;;;6284163;28;20114;-78
2022/09/10 11:13:30;;;;;;;2.17;1.30;;;;;;;;;;6274054;28;20063;-78
2022/09/10 11:16:44;;;;;;;5.55;1.23;;;;;;;;;;6271603;28;20041;-79
2022/09/10 11:20:18;;;;;;;3.05;1.60;;;;;;;;;;6278729;28;20117;-79
2022/09/10 11:23:45;;;;;;;2.60;1.30;;;;;;;;;;6275931;28;20036;-79
2022/09/10 11:26:55;;;;;;;1.35;1.25;;;;;;;;;;6276762;28;20441;-79
2022/09/10 11:30:18;;;;;;;2.08;1.10;;;;;;;;;;6270997;28;20060;-77
2022/09/10 11:33:32;;;;;;;1.15;1.00;;;;;;;;;;6271933;28;20685;-79
2022/09/10 11:36:44;;;;;;;3.92;1.40;;;;;;;;;;6275500;28;20033;-79
2022/09/10 11:39:51;;;;;;;2.53;1.63;;;;;;;;;;6267040;28;20052;-78
2022/09/10 11:42:59;;;;;;;2.35;1.23;;;;;;;;;;6253663;28;20052;-80
2022/09/10 11:46:06;;;;;;;3.22;1.35;;;;;;;;;;6255300;28;20041;-79
2022/09/10 11:49:22;;;;;;;1.40;1.30;;;;;;;;;;6259043;28;20052;-78
2022/09/10 11:52:26;;;;;;;1.33;1.23;;;;;;;;;;6258083;28;20041;-80
2022/09/10 11:55:58;;;;;;;2.50;1.20;;;;;;;;;;6267152;28;20045;-80
2022/09/10 11:59:27;;;;;;;3.03;1.30;;;;;;;;;;6232264;28;20549;-79
2022/09/10 12:03:02;;;;;;;2.00;1.30;;;;;;;;;;6301834;28;20055;-79
2022/09/10 12:06:29;;;;;;;1.20;1.10;;;;;;;;;;6254784;28;20040;-78
2022/09/10 12:09:53;;;;;;;1.83;1.05;;;;;;;;;;6257264;28;20128;-77
2022/09/10 12:12:54;;;;;;;1.33;1.00;;;;;;;;;;6269182;28;20055;-79
2022/09/10 12:16:01;;;;;;;1.23;1.08;;;;;;;;;;6275679;28;20041;-78
2022/09/10 12:19:53;;;;;;;1.13;1.00;;;;;;;;;;6278380;28;20059;-79
2022/09/10 12:22:55;;;;;;;2.88;1.30;;;;;;;;;;6255333;28;20074;-81
2022/09/10 12:26:14;;;;;;;3.35;1.10;;;;;;;;;;6271585;28;20049;-81
2022/09/10 12:29:36;;;;;;;1.70;1.00;;;;;;;;;;6272992;28;20083;-78
2022/09/10 12:32:38;;;;;;;2.20;1.73;;;;;;;;;;6266810;28;20110;-79
2022/09/10 12:35:44;;;;;;;1.50;1.20;;;;;;;;;;6281507;28;20044;-81
2022/09/10 12:38:48;;;;;;;1.77;1.20;;;;;;;;;;6279197;28;20048;-78
2022/09/10 12:41:50;;;;;;;2.25;1.02;;;;;;;;;;6279291;28;20411;-77
2022/09/10 12:44:52;;;;;;;2.43;1.00;;;;;;;;;;6276205;28;20114;-78
2022/09/10 12:47:54;;;;;;;3.00;1.10;;;;;;;;;;6282346;28;20132;-78
2022/09/10 12:50:59;;;;;;;1.20;1.05;;;;;;;;;;6285984;28;20136;-78
2022/09/10 12:54:36;;;;;;;1.20;1.10;;;;;;;;;;6287956;28;20126;-78
2022/09/10 12:57:50;;;;;;;1.80;1.20;;;;;;;;;;6275362;28;20069;-79
2022/09/10 13:00:54;;;;;;;1.08;0.98;;;;;;;;;;6281197;28;20112;-79
2022/09/10 13:04:01;;;;;;;1.95;1.10;;;;;;;;;;6276376;28;20664;-79
2022/09/10 13:07:18;;;;;;;2.00;1.30;;;;;;;;;;6267307;28;20051;-80
2022/09/10 13:10:24;;;;;;;2.63;1.40;;;;;;;;;;6273173;28;20051;-81
2022/09/10 13:13:50;;;;;;;1.35;1.20;;;;;;;;;;6271358;28;20071;-81
2022/09/10 13:16:54;;;;;;;2.35;1.25;;;;;;;;;;6274430;28;20041;-80
2022/09/10 13:20:13;;;;;;;2.47;1.38;;;;;;;;;;6272648;28;20040;-81
2022/09/10 13:23:16;;;;;;;1.95;1.30;;;;;;;;;;6274963;28;20049;-80
2022/09/10 13:26:27;;;;;;;;;;;;;;;;;;6285164;28;20052;-79
2022/09/10 13:29:35;;;;;;;2.22;1.40;;;;;;;;;;6276415;28;19920;-81
2022/09/10 13:32:57;;;;;;;1.80;1.15;;;;;;;;;;6274858;28;20048;-81
2022/09/10 13:36:20;;;;;;;1.92;1.27;;;;;;;;;;6273060;28;20123;-79
2022/09/10 13:39:46;;;;;;;1.58;1.30;;;;;;;;;;6277544;28;20064;-80
2022/09/10 13:43:09;;;;;;;1.33;1.20;;;;;;;;;;6283490;28;20230;-81
2022/09/10 13:46:18;;;;;;;1.17;1.10;;;;;;;;;;6285280;28;20041;-79
2022/09/10 13:49:39;;;;;;;1.65;1.10;;;;;;;;;;6286802;28;20048;-79
2022/09/10 13:52:44;;;;;;;2.42;1.20;;;;;;;;;;6270670;28;20787;-80
2022/09/10 13:56:12;;;;;;;2.15;1.20;;;;;;;;;;6274962;28;20548;-79
2022/09/10 13:59:26;;;;;;;1.33;1.23;;;;;;;;;;6279446;28;20041;-80
2022/09/10 14:02:43;;;;;;;1.38;1.25;;;;;;;;;;6268554;28;20049;-79
2022/09/10 14:05:47;;;;;;;2.20;1.45;;;;;;;;;;6282012;28;20052;-82
2022/09/10 14:08:53;;;;;;;1.55;1.45;;;;;;;;;;6277740;28;20061;-81
2022/09/10 14:11:58;;;;;;;2.80;1.20;;;;;;;;;;6274901;28;20044;-81
2022/09/10 14:15:05;;;;;;;1.88;1.30;;;;;;;;;;6276190;28;20051;-79
2022/09/10 14:18:08;;;;;;;2.15;1.30;;;;;;;;;;6262385;28;20044;-81
2022/09/10 14:21:15;;;;;;;2.38;1.40;;;;;;;;;;6272526;28;20550;-81
2022/09/10 14:24:56;;;;;;;3.58;2.25;;;;;;;;;;6282426;28;20503;-80
2022/09/10 14:28:30;;;;;;;2.50;1.60;;;;;;;;;;6266396;28;20043;-79
2022/09/10 14:31:33;;;;;;;3.33;1.90;;;;;;;;;;6255338;28;20499;-80
2022/09/10 14:34:35;;;;;;;3.72;1.73;;;;;;;;;;6274703;28;20446;-78
2022/09/10 14:37:37;;;;;;;2.67;1.67;;;;;;;;;;6281791;28;20131;-78
2022/09/10 14:40:39;;;;;;;3.45;2.00;;;;;;;;;;6279605;28;20076;-79
2022/09/10 14:43:41;;;;;;;3.20;2.27;;;;;;;;;;6281608;28;20050;-78
2022/09/10 14:46:58;;;;;;;4.28;2.30;;;;;;;;;;6281291;28;20044;-80
2022/09/10 14:50:26;;;;;;;3.67;2.42;;;;;;;;;;6287753;28;20371;-80
2022/09/10 14:53:28;;;;;;;2.60;2.35;;;;;;;;;;6278071;28;20048;-79
2022/09/10 14:56:32;;;;;;;3.15;2.22;;;;;;;;;;6281244;28;20587;-80
2022/09/10 14:59:39;;;;;;;3.72;2.47;;;;;;;;;;6277831;28;20051;-77
2022/09/10 15:02:40;;;;;;;2.53;1.95;;;;;;;;;;6284131;28;20048;-80
2022/09/10 15:05:42;;;;;;;3.67;1.90;;;;;;;;;;6281770;28;20132;-79
2022/09/10 15:08:44;;;;;;;4.05;3.00;;;;;;;;;;6286022;28;20626;-78
2022/09/10 15:11:54;;;;;;;4.38;3.53;;;;;;;;;;6284440;28;20050;-79
2022/09/10 15:14:56;;;;;;;5.50;3.35;;;;;;;;;;6275904;28;20238;-79
2022/09/10 15:17:58;;;;;;;5.22;2.67;;;;;;;;;;6275921;28;20633;-79
2022/09/10 15:21:01;;;;;;;2.80;2.50;;;;;;;;;;6287515;28;20495;-79
2022/09/10 15:24:04;;;;;;;2.13;1.55;;;;;;;;;;6288933;28;20047;-79
2022/09/10 15:27:07;;;;;;;;;;;;;;;;;;6279715;28;20194;-81
2022/09/10 15:30:09;;;;;;;1.38;1.27;;;;;;;;;;6266572;28;19921;-80
2022/09/10 15:33:13;;;;;;;2.53;1.70;;;;;;;;;;6264336;28;20496;-79
2022/09/10 15:36:15;;;;;;;2.85;1.83;;;;;;;;;;6290008;28;20045;-81
2022/09/10 15:39:16;;;;;;;4.07;2.28;;;;;;;;;;6290793;28;20072;-81
2022/09/10 15:42:18;;;;;;;3.60;2.40;;;;;;;;;;6287044;28;20045;-79
2022/09/10 15:45:19;;;;;;;2.40;2.17;;;;;;;;;;6284522;28;20032;-80
2022/09/10 15:48:21;;;;;;;3.63;2.17;;;;;;;;;;6289016;28;20049;-79
2022/09/10 15:51:23;;;;;;;3.38;2.03;;;;;;;;;;6289767;28;20051;-81
2022/09/10 15:54:24;;;;;;;4.45;2.05;;;;;;;;;;6289604;28;20055;-79
2022/09/10 15:57:26;;;;;;;3.03;2.40;;;;;;;;;;6283790;28;20054;-81
2022/09/10 16:00:28;;;;;;;4.68;2.83;;;;;;;;;;6285808;28;20127;-81
2022/09/10 16:03:30;;;;;;;4.97;2.80;;;;;;;;;;6291114;28;20036;-81
2022/09/10 16:06:35;;;;;;;2.78;2.45;;;;;;;;;;6291008;28;20037;-79
2022/09/10 16:09:36;;;;;;;3.75;2.50;;;;;;;;;;6287995;28;20074;-80
2022/09/10 16:12:38;;;;;;;2.60;2.25;;;;;;;;;;6284997;28;20044;-79
2022/09/10 16:15:40;;;;;;;4.82;2.70;;;;;;;;;;6286575;28;20089;-80
2022/09/10 16:18:41;;;;;;;3.97;2.67;;;;;;;;;;6289085;28;20048;-78
2022/09/10 16:21:44;;;;;;;3.28;2.42;;;;;;;;;;6287164;28;20045;-78
2022/09/10 16:24:46;;;;;;;;;;;;;;;;;;6282694;28;20065;-79
2022/09/10 16:27:47;;;;;;;5.43;2.47;;;;;;;;;;6283651;28;20315;-80
2022/09/10 16:30:50;;;;;;;3.33;3.00;;;;;;;;;;6289783;28;20056;-78
2022/09/10 16:33:53;;;;;;;3.65;3.17;;;;;;;;;;6288425;28;20052;-78
2022/09/10 16:36:55;;;;;;;5.75;3.15;;;;;;;;;;6288120;28;20051;-78
2022/09/10 16:39:57;;;;;;;5.18;3.22;;;;;;;;;;6282007;28;20096;-77
2022/09/10 16:42:59;;;;;;;4.53;3.20;;;;;;;;;;6268527;28;20044;-77
2022/09/10 16:46:05;;;;;;;3.30;3.03;;;;;;;;;;6286701;28;20048;-78
2022/09/10 16:49:11;;;;;;;4.70;3.40;;;;;;;;;;6275768;28;20102;-78
2022/09/10 16:52:12;;;;;;;4.78;3.60;;;;;;;;;;6283640;28;20040;-77
2022/09/10 16:55:15;;;;;;;5.82;3.42;;;;;;;;;;6276132;28;20037;-80
2022/09/10 16:58:17;;;;;;;4.93;3.60;;;;;;;;;;6278404;28;20206;-80
2022/09/10 17:01:19;;;;;;;3.80;3.33;;;;;;;;;;6274713;28;20045;-79
2022/09/10 17:04:21;;;;;;;6.18;3.42;;;;;;;;;;6283729;28;20105;-79
2022/09/10 17:07:29;;;;;;;5.03;3.45;;;;;;;;;;6265741;28;20492;-80
2022/09/10 17:10:31;;;;;;;3.38;2.90;;;;;;;;;;6268225;28;20053;-80
2022/09/10 17:13:33;;;;;;;6.30;3.25;;;;;;;;;;6262874;28;20047;-79
2022/09/10 17:16:39;;;;;;;4.13;2.67;;;;;;;;;;6258554;28;20043;-79
2022/09/10 17:19:41;;;;;;;7.55;4.72;;;;;;;;;;6263940;28;20051;-80
2022/09/10 17:22:44;;;;;;;11.07;7.00;;;;;;;;;;6262770;28;20527;-79
2022/09/10 17:25:47;;;;;;;4.97;4.47;;;;;;;;;;6269182;28;20037;-78
2022/09/10 17:28:57;;;;;;;4.55;3.65;;;;;;;;;;6285219;28;20044;-77
2022/09/10 17:31:58;;;;;;;3.30;2.80;;;;;;;;;;6286985;28;20105;-79
2022/09/10 17:35:00;;;;;;;4.18;2.95;;;;;;;;;;6277050;28;20040;-78
2022/09/10 17:38:05;;;;;;;5.03;2.70;;;;;;;;;;6286851;28;20139;-80
2022/09/10 17:41:06;;;;;;;6.75;3.05;;;;;;;;;;6290295;28;20128;-78
2022/09/10 17:44:12;;;;;;;4.80;2.88;;;;;;;;;;6278035;28;20127;-77
2022/09/10 17:47:14;;;;;;;3.80;3.20;;;;;;;;;;6285288;28;20059;-78
2022/09/10 17:50:15;;;;;;;3.92;3.25;;;;;;;;;;6283296;28;20060;-79
2022/09/10 17:53:18;;;;;;;4.95;3.78;;;;;;;;;;6279465;28;20048;-80
2022/09/10 17:56:21;;;;;;;4.95;3.80;;;;;;;;;;6283320;28;20037;-80
2022/09/10 17:59:24;;;;;;;3.95;3.45;;;;;;;;;;6283209;28;20076;-79
2022/09/10 18:02:25;;;;;;;5.73;3.47;;;;;;;;;;6286315;28;20132;-79
2022/09/10 18:05:27;;;;;;;5.45;3.50;;;;;;;;;;6283396;28;20044;-80
2022/09/10 18:08:33;;;;;;;5.13;4.20;;;;;;;;;;6290710;28;20499;-79
2022/09/10 18:11:38;;;;;;;4.82;4.00;;;;;;;;;;6265208;28;20042;-80
2022/09/10 18:14:40;;;;;;;6.53;4.35;;;;;;;;;;6271375;28;20129;-80
2022/09/10 18:17:41;;;;;;;5.88;4.55;;;;;;;;;;6285603;28;20071;-80
2022/09/10 18:20:43;;;;;;;6.60;4.50;;;;;;;;;;6293717;28;20051;-80
2022/09/10 18:23:52;;;;;;;3.97;3.63;;;;;;;;;;6291620;28;20039;-80
2022/09/10 18:26:55;;;;;;;5.07;4.45;;;;;;;;;;6299450;28;20068;-78
2022/09/10 18:29:56;;;;;;;4.95;4.45;;;;;;;;;;6280869;28;20095;-78
2022/09/10 18:32:59;;;;;;;7.60;4.20;;;;;;;;;;6268848;28;20048;-76
2022/09/10 18:36:00;;;;;;;5.97;4.77;;;;;;;;;;6270720;28;20041;-77
2022/09/10 18:39:11;;;;;;;6.78;4.30;;;;;;;;;;6276863;28;21047;-80
2022/09/10 18:42:13;;;;;;;7.43;4.75;;;;;;;;;;6277149;28;20049;-80
2022/09/10 18:45:16;;;;;;;6.25;5.00;;;;;;;;;;6282733;28;20698;-79
2022/09/10 18:48:17;;;;;;;6.93;4.50;;;;;;;;;;6275381;28;20080;-78